sensor_id;sensor_type;location;lat;lon;timestamp;temperature;humidity
51579;DHT22;47998;53.242;6.386;2023-06-26T00:01:23;20.40;99.90
51579;DHT22;47998;53.242;6.386;2023-06-26T00:03:49;20.40;99.90
51579;DHT22;47998;53.242;6.386;2023-06-26T00:06:15;20.40;99.90
51579;DHT22;47998;53.242;6.386;2023-06-26T00:08:40;20.40;99.90
51579;DHT22;47998;53.242;6.386;2023-06-26T00:11:06;20.40;99.90
51579;DHT22;47998;53.242;6.386;2023-06-26T00:13:32;20.40;99.90
51579;DHT22;47998;53.242;6.386;2023-06-26T00:15:58;20.40;99.90
51579;DHT22;47998;53.242;6.386;2023-06-26T00:18:25;20.30;99.90
51579;DHT22;47998;53.242;6.386;2023-06-26T00:20:51;20.30;99.90
51579;DHT22;47998;53.242;6.386;2023-06-26T00:23:18;20.30;99.90
51579;DHT22;47998;53.242;6.386;2023-06-26T00:25:44;20.40;99.90
51579;DHT22;47998;53.242;6.386;2023-06-26T00:28:10;20.40;99.90
51579;DHT22;47998;53.242;6.386;2023-06-26T00:30:36;20.40;99.90
51579;DHT22;47998;53.242;6.386;2023-06-26T00:33:02;20.40;99.90
51579;DHT22;47998;53.242;6.386;2023-06-26T00:35:27;20.40;99.90
51579;DHT22;47998;53.242;6.386;2023-06-26T00:37:53;20.40;99.90
51579;DHT22;47998;53.242;6.386;2023-06-26T00:40:19;20.40;99.90
51579;DHT22;47998;53.242;6.386;2023-06-26T00:42:45;20.30;99.90
51579;DHT22;47998;53.242;6.386;2023-06-26T00:45:12;20.30;99.90
51579;DHT22;47998;53.242;6.386;2023-06-26T00:47:39;20.30;99.90
51579;DHT22;47998;53.242;6.386;2023-06-26T00:50:10;20.30;99.90
51579;DHT22;47998;53.242;6.386;2023-06-26T00:52:37;20.30;99.90
51579;DHT22;47998;53.242;6.386;2023-06-26T00:55:05;20.30;99.90
51579;DHT22;47998;53.242;6.386;2023-06-26T00:57:32;20.30;99.90
51579;DHT22;47998;53.242;6.386;2023-06-26T00:59:59;20.20;99.90
51579;DHT22;47998;53.242;6.386;2023-06-26T01:02:26;20.20;99.90
51579;DHT22;47998;53.242;6.386;2023-06-26T01:05:02;20.20;99.90
51579;DHT22;47998;53.242;6.386;2023-06-26T01:07:34;20.20;99.90
51579;DHT22;47998;53.242;6.386;2023-06-26T01:10:07;20.20;99.90
51579;DHT22;47998;53.242;6.386;2023-06-26T01:12:33;20.20;99.90
51579;DHT22;47998;53.242;6.386;2023-06-26T01:15:01;20.20;99.90
51579;DHT22;47998;53.242;6.386;2023-06-26T01:17:27;20.20;99.90
51579;DHT22;47998;53.242;6.386;2023-06-26T01:20:00;20.30;99.90
51579;DHT22;47998;53.242;6.386;2023-06-26T01:27:50;20.30;99.90
51579;DHT22;47998;53.242;6.386;2023-06-26T01:30:19;20.30;99.90
51579;DHT22;47998;53.242;6.386;2023-06-26T01:32:45;20.20;99.90
51579;DHT22;47998;53.242;6.386;2023-06-26T01:35:12;20.20;99.90
51579;DHT22;47998;53.242;6.386;2023-06-26T01:37:38;20.10;99.90
51579;DHT22;47998;53.242;6.386;2023-06-26T01:40:05;20.00;99.90
51579;DHT22;47998;53.242;6.386;2023-06-26T01:42:34;20.00;99.90
51579;DHT22;47998;53.242;6.386;2023-06-26T01:45:07;20.00;1.00
51579;DHT22;47998;53.242;6.386;2023-06-26T01:47:37;20.00;99.90
51579;DHT22;47998;53.242;6.386;2023-06-26T01:50:11;20.00;99.90
51579;DHT22;47998;53.242;6.386;2023-06-26T01:52:48;20.10;99.90
51579;DHT22;47998;53.242;6.386;2023-06-26T01:55:24;20.10;99.90
51579;DHT22;47998;53.242;6.386;2023-06-26T01:57:56;20.20;99.90
51579;DHT22;47998;53.242;6.386;2023-06-26T02:00:23;20.20;99.90
51579;DHT22;47998;53.242;6.386;2023-06-26T02:02:50;20.10;99.90
51579;DHT22;47998;53.242;6.386;2023-06-26T02:05:15;20.10;99.90
51579;DHT22;47998;53.242;6.386;2023-06-26T02:07:41;20.00;99.90
51579;DHT22;47998;53.242;6.386;2023-06-26T02:10:08;19.90;99.90
51579;DHT22;47998;53.242;6.386;2023-06-26T02:12:35;19.80;99.90
51579;DHT22;47998;53.242;6.386;2023-06-26T02:15:02;19.80;99.90
51579;DHT22;47998;53.242;6.386;2023-06-26T02:17:28;19.70;99.90
51579;DHT22;47998;53.242;6.386;2023-06-26T02:19:53;19.60;99.90
51579;DHT22;47998;53.242;6.386;2023-06-26T02:22:19;19.60;1.00
51579;DHT22;47998;53.242;6.386;2023-06-26T02:24:45;19.60;1.00
51579;DHT22;47998;53.242;6.386;2023-06-26T02:27:10;19.60;1.00
51579;DHT22;47998;53.242;6.386;2023-06-26T02:29:36;19.50;1.00
51579;DHT22;47998;53.242;6.386;2023-06-26T02:32:02;19.50;1.00
51579;DHT22;47998;53.242;6.386;2023-06-26T02:34:28;19.50;1.00
51579;DHT22;47998;53.242;6.386;2023-06-26T02:36:56;19.50;1.00
51579;DHT22;47998;53.242;6.386;2023-06-26T02:39:22;19.50;1.00
51579;DHT22;47998;53.242;6.386;2023-06-26T02:41:48;19.60;1.00
51579;DHT22;47998;53.242;6.386;2023-06-26T02:44:13;19.50;1.00
51579;DHT22;47998;53.242;6.386;2023-06-26T02:46:40;19.50;1.00
51579;DHT22;47998;53.242;6.386;2023-06-26T02:49:06;19.50;1.00
51579;DHT22;47998;53.242;6.386;2023-06-26T02:51:33;19.50;1.00
51579;DHT22;47998;53.242;6.386;2023-06-26T02:53:59;19.40;1.00
51579;DHT22;47998;53.242;6.386;2023-06-26T02:56:25;19.50;1.00
51579;DHT22;47998;53.242;6.386;2023-06-26T02:58:54;19.40;1.00
51579;DHT22;47998;53.242;6.386;2023-06-26T03:01:20;19.40;56.00
51579;DHT22;47998;53.242;6.386;2023-06-26T03:03:46;19.40;59.90
51579;DHT22;47998;53.242;6.386;2023-06-26T03:06:12;19.40;76.80
51579;DHT22;47998;53.242;6.386;2023-06-26T03:08:39;19.40;99.90
51579;DHT22;47998;53.242;6.386;2023-06-26T03:11:09;19.40;99.90
51579;DHT22;47998;53.242;6.386;2023-06-26T03:13:35;19.50;99.90
51579;DHT22;47998;53.242;6.386;2023-06-26T03:16:01;19.60;99.90
51579;DHT22;47998;53.242;6.386;2023-06-26T03:18:27;19.60;99.90
51579;DHT22;47998;53.242;6.386;2023-06-26T03:20:54;19.50;99.90
51579;DHT22;47998;53.242;6.386;2023-06-26T03:23:20;19.50;99.90
51579;DHT22;47998;53.242;6.386;2023-06-26T03:25:47;19.50;99.90
51579;DHT22;47998;53.242;6.386;2023-06-26T03:28:13;19.50;99.90
51579;DHT22;47998;53.242;6.386;2023-06-26T03:30:39;19.50;99.90
51579;DHT22;47998;53.242;6.386;2023-06-26T03:33:04;19.60;99.90
51579;DHT22;47998;53.242;6.386;2023-06-26T03:35:30;19.70;99.90
51579;DHT22;47998;53.242;6.386;2023-06-26T03:37:56;19.70;99.90
51579;DHT22;47998;53.242;6.386;2023-06-26T03:40:22;19.70;99.90
51579;DHT22;47998;53.242;6.386;2023-06-26T03:42:48;19.80;99.90
51579;DHT22;47998;53.242;6.386;2023-06-26T03:45:13;19.80;99.90
51579;DHT22;47998;53.242;6.386;2023-06-26T03:47:39;19.90;99.90
51579;DHT22;47998;53.242;6.386;2023-06-26T03:50:05;19.90;99.90
51579;DHT22;47998;53.242;6.386;2023-06-26T03:52:31;19.90;99.90
51579;DHT22;47998;53.242;6.386;2023-06-26T03:54:57;19.90;99.90
51579;DHT22;47998;53.242;6.386;2023-06-26T03:57:23;19.90;99.90
51579;DHT22;47998;53.242;6.386;2023-06-26T03:59:50;19.90;99.90
51579;DHT22;47998;53.242;6.386;2023-06-26T04:02:15;19.90;99.90
51579;DHT22;47998;53.242;6.386;2023-06-26T04:04:41;19.90;99.90
51579;DHT22;47998;53.242;6.386;2023-06-26T04:07:07;19.90;1.00
51579;DHT22;47998;53.242;6.386;2023-06-26T04:09:32;20.00;1.00
51579;DHT22;47998;53.242;6.386;2023-06-26T04:11:58;20.10;1.00
51579;DHT22;47998;53.242;6.386;2023-06-26T04:14:24;20.20;1.00
51579;DHT22;47998;53.242;6.386;2023-06-26T04:16:50;20.30;1.00
51579;DHT22;47998;53.242;6.386;2023-06-26T04:19:15;20.40;1.00
51579;DHT22;47998;53.242;6.386;2023-06-26T04:21:41;20.50;1.00
51579;DHT22;47998;53.242;6.386;2023-06-26T04:24:07;20.50;1.00
51579;DHT22;47998;53.242;6.386;2023-06-26T04:26:33;20.60;1.00
51579;DHT22;47998;53.242;6.386;2023-06-26T04:28:59;20.60;56.30
51579;DHT22;47998;53.242;6.386;2023-06-26T04:31:25;20.60;99.90
51579;DHT22;47998;53.242;6.386;2023-06-26T04:33:51;20.60;99.90
51579;DHT22;47998;53.242;6.386;2023-06-26T04:36:18;20.50;99.90
51579;DHT22;47998;53.242;6.386;2023-06-26T04:38:44;20.50;99.90
51579;DHT22;47998;53.242;6.386;2023-06-26T04:41:09;20.50;99.90
51579;DHT22;47998;53.242;6.386;2023-06-26T04:43:35;20.50;99.90
51579;DHT22;47998;53.242;6.386;2023-06-26T04:46:02;20.40;99.90
51579;DHT22;47998;53.242;6.386;2023-06-26T04:48:28;20.30;99.90
51579;DHT22;47998;53.242;6.386;2023-06-26T04:50:56;20.20;99.90
51579;DHT22;47998;53.242;6.386;2023-06-26T04:53:22;20.20;99.90
51579;DHT22;47998;53.242;6.386;2023-06-26T04:55:49;20.10;99.90
51579;DHT22;47998;53.242;6.386;2023-06-26T04:58:15;20.00;99.90
51579;DHT22;47998;53.242;6.386;2023-06-26T05:00:41;19.90;99.90
51579;DHT22;47998;53.242;6.386;2023-06-26T05:03:09;19.80;99.90
51579;DHT22;47998;53.242;6.386;2023-06-26T05:05:35;19.80;99.90
51579;DHT22;47998;53.242;6.386;2023-06-26T05:08:16;19.70;99.90
51579;DHT22;47998;53.242;6.386;2023-06-26T05:10:43;19.70;99.90
51579;DHT22;47998;53.242;6.386;2023-06-26T05:13:10;19.60;99.90
51579;DHT22;47998;53.242;6.386;2023-06-26T05:15:36;19.50;99.90
51579;DHT22;47998;53.242;6.386;2023-06-26T05:18:01;19.40;99.90
51579;DHT22;47998;53.242;6.386;2023-06-26T05:20:27;19.40;99.90
51579;DHT22;47998;53.242;6.386;2023-06-26T05:22:53;19.40;99.90
51579;DHT22;47998;53.242;6.386;2023-06-26T05:25:19;19.40;99.90
51579;DHT22;47998;53.242;6.386;2023-06-26T05:27:47;19.30;99.90
51579;DHT22;47998;53.242;6.386;2023-06-26T05:30:13;19.30;99.90
51579;DHT22;47998;53.242;6.386;2023-06-26T05:32:40;19.20;99.90
51579;DHT22;47998;53.242;6.386;2023-06-26T05:35:07;19.20;99.90
51579;DHT22;47998;53.242;6.386;2023-06-26T05:37:33;19.10;99.90
51579;DHT22;47998;53.242;6.386;2023-06-26T05:40:00;19.10;99.90
51579;DHT22;47998;53.242;6.386;2023-06-26T05:42:29;19.10;99.90
51579;DHT22;47998;53.242;6.386;2023-06-26T05:44:55;19.00;99.90
51579;DHT22;47998;53.242;6.386;2023-06-26T05:47:21;19.00;99.90
51579;DHT22;47998;53.242;6.386;2023-06-26T05:49:47;18.90;99.90
51579;DHT22;47998;53.242;6.386;2023-06-26T05:52:13;18.90;99.90
51579;DHT22;47998;53.242;6.386;2023-06-26T05:54:39;18.80;99.90
51579;DHT22;47998;53.242;6.386;2023-06-26T05:57:05;18.80;99.90
51579;DHT22;47998;53.242;6.386;2023-06-26T05:59:32;19.10;99.90
51579;DHT22;47998;53.242;6.386;2023-06-26T06:01:58;19.10;99.90
51579;DHT22;47998;53.242;6.386;2023-06-26T06:04:24;18.90;99.90
51579;DHT22;47998;53.242;6.386;2023-06-26T06:06:50;19.10;99.90
51579;DHT22;47998;53.242;6.386;2023-06-26T06:09:15;19.70;99.90
51579;DHT22;47998;53.242;6.386;2023-06-26T06:11:41;20.40;99.90
51579;DHT22;47998;53.242;6.386;2023-06-26T06:14:07;20.40;99.90
51579;DHT22;47998;53.242;6.386;2023-06-26T06:16:33;20.10;99.90
51579;DHT22;47998;53.242;6.386;2023-06-26T06:18:58;20.20;99.90
51579;DHT22;47998;53.242;6.386;2023-06-26T06:21:24;20.60;99.90
51579;DHT22;47998;53.242;6.386;2023-06-26T06:23:50;20.80;99.90
51579;DHT22;47998;53.242;6.386;2023-06-26T06:26:16;21.00;1.00
51579;DHT22;47998;53.242;6.386;2023-06-26T06:28:41;21.20;99.90
51579;DHT22;47998;53.242;6.386;2023-06-26T06:31:07;21.30;99.90
51579;DHT22;47998;53.242;6.386;2023-06-26T06:33:32;21.30;99.90
51579;DHT22;47998;53.242;6.386;2023-06-26T06:35:58;21.40;99.90
51579;DHT22;47998;53.242;6.386;2023-06-26T06:38:24;21.40;1.00
51579;DHT22;47998;53.242;6.386;2023-06-26T06:40:50;21.20;1.00
51579;DHT22;47998;53.242;6.386;2023-06-26T06:43:16;21.80;99.90
51579;DHT22;47998;53.242;6.386;2023-06-26T06:45:41;21.90;1.00
51579;DHT22;47998;53.242;6.386;2023-06-26T06:48:07;21.70;99.90
51579;DHT22;47998;53.242;6.386;2023-06-26T06:50:33;20.80;99.90
51579;DHT22;47998;53.242;6.386;2023-06-26T06:52:59;20.40;1.00
51579;DHT22;47998;53.242;6.386;2023-06-26T06:55:24;20.80;1.00
51579;DHT22;47998;53.242;6.386;2023-06-26T06:57:51;21.10;1.00
51579;DHT22;47998;53.242;6.386;2023-06-26T07:00:17;21.30;83.30
51579;DHT22;47998;53.242;6.386;2023-06-26T07:02:45;21.30;1.00
51579;DHT22;47998;53.242;6.386;2023-06-26T07:05:11;20.80;62.20
51579;DHT22;47998;53.242;6.386;2023-06-26T07:07:38;20.60;1.00
51579;DHT22;47998;53.242;6.386;2023-06-26T07:12:31;20.70;1.00
51579;DHT22;47998;53.242;6.386;2023-06-26T07:14:57;20.70;1.00
51579;DHT22;47998;53.242;6.386;2023-06-26T07:17:23;20.60;1.00
51579;DHT22;47998;53.242;6.386;2023-06-26T07:19:49;21.20;99.90
51579;DHT22;47998;53.242;6.386;2023-06-26T07:22:15;21.80;1.00
51579;DHT22;47998;53.242;6.386;2023-06-26T07:24:41;22.30;99.90
51579;DHT22;47998;53.242;6.386;2023-06-26T07:27:07;22.20;99.90
51579;DHT22;47998;53.242;6.386;2023-06-26T07:29:33;22.20;99.90
51579;DHT22;47998;53.242;6.386;2023-06-26T07:31:58;22.40;11.90
51579;DHT22;47998;53.242;6.386;2023-06-26T07:34:24;22.50;94.30
51579;DHT22;47998;53.242;6.386;2023-06-26T07:36:50;22.60;76.50
51579;DHT22;47998;53.242;6.386;2023-06-26T07:39:16;22.70;99.90
51579;DHT22;47998;53.242;6.386;2023-06-26T07:41:41;22.90;1.00
51579;DHT22;47998;53.242;6.386;2023-06-26T07:44:07;22.70;1.00
51579;DHT22;47998;53.242;6.386;2023-06-26T07:46:33;21.80;99.90
51579;DHT22;47998;53.242;6.386;2023-06-26T07:48:58;21.30;1.00
51579;DHT22;47998;53.242;6.386;2023-06-26T07:51:24;20.80;58.00
51579;DHT22;47998;53.242;6.386;2023-06-26T07:53:50;20.80;99.90
51579;DHT22;47998;53.242;6.386;2023-06-26T07:56:16;21.50;99.90
51579;DHT22;47998;53.242;6.386;2023-06-26T07:58:41;22.20;99.90
51579;DHT22;47998;53.242;6.386;2023-06-26T08:01:07;21.30;99.90
51579;DHT22;47998;53.242;6.386;2023-06-26T08:03:33;21.50;99.90
51579;DHT22;47998;53.242;6.386;2023-06-26T08:05:58;21.90;99.90
51579;DHT22;47998;53.242;6.386;2023-06-26T08:08:24;21.80;99.90
51579;DHT22;47998;53.242;6.386;2023-06-26T08:10:50;22.10;1.00
51579;DHT22;47998;53.242;6.386;2023-06-26T08:13:15;21.90;96.80
51579;DHT22;47998;53.242;6.386;2023-06-26T08:15:41;21.90;1.00
51579;DHT22;47998;53.242;6.386;2023-06-26T08:18:07;21.90;1.00
51579;DHT22;47998;53.242;6.386;2023-06-26T08:20:32;22.30;1.00
51579;DHT22;47998;53.242;6.386;2023-06-26T08:23:01;21.80;99.90
51579;DHT22;47998;53.242;6.386;2023-06-26T08:25:26;21.30;1.00
51579;DHT22;47998;53.242;6.386;2023-06-26T08:27:52;21.20;1.00
51579;DHT22;47998;53.242;6.386;2023-06-26T08:30:19;21.20;99.90
51579;DHT22;47998;53.242;6.386;2023-06-26T08:32:45;20.90;99.90
51579;DHT22;47998;53.242;6.386;2023-06-26T08:35:10;20.60;99.90
51579;DHT22;47998;53.242;6.386;2023-06-26T08:37:36;20.40;99.90
51579;DHT22;47998;53.242;6.386;2023-06-26T08:40:02;21.30;1.00
51579;DHT22;47998;53.242;6.386;2023-06-26T08:42:29;21.30;1.00
51579;DHT22;47998;53.242;6.386;2023-06-26T08:44:55;21.20;99.90
51579;DHT22;47998;53.242;6.386;2023-06-26T08:47:21;21.60;99.90
51579;DHT22;47998;53.242;6.386;2023-06-26T08:49:53;21.70;1.00
51579;DHT22;47998;53.242;6.386;2023-06-26T08:52:30;21.40;99.90
51579;DHT22;47998;53.242;6.386;2023-06-26T08:54:59;21.10;99.90
51579;DHT22;47998;53.242;6.386;2023-06-26T08:57:27;21.40;99.90
51579;DHT22;47998;53.242;6.386;2023-06-26T08:59:55;21.40;99.90
51579;DHT22;47998;53.242;6.386;2023-06-26T09:02:20;21.80;99.90
51579;DHT22;47998;53.242;6.386;2023-06-26T09:04:48;22.30;1.00
51579;DHT22;47998;53.242;6.386;2023-06-26T09:07:15;22.40;1.00
51579;DHT22;47998;53.242;6.386;2023-06-26T09:09:41;22.70;99.90
51579;DHT22;47998;53.242;6.386;2023-06-26T09:12:08;22.40;99.90
51579;DHT22;47998;53.242;6.386;2023-06-26T09:14:36;21.40;99.90
51579;DHT22;47998;53.242;6.386;2023-06-26T09:17:02;20.90;93.50
51579;DHT22;47998;53.242;6.386;2023-06-26T09:19:27;20.90;99.90
51579;DHT22;47998;53.242;6.386;2023-06-26T09:21:54;21.70;1.00
51579;DHT22;47998;53.242;6.386;2023-06-26T09:24:20;22.20;1.00
51579;DHT22;47998;53.242;6.386;2023-06-26T09:26:47;22.50;1.00
51579;DHT22;47998;53.242;6.386;2023-06-26T09:29:13;22.40;1.00
51579;DHT22;47998;53.242;6.386;2023-06-26T09:31:40;21.90;1.00
51579;DHT22;47998;53.242;6.386;2023-06-26T09:34:06;22.20;99.90
51579;DHT22;47998;53.242;6.386;2023-06-26T09:36:32;22.60;99.90
51579;DHT22;47998;53.242;6.386;2023-06-26T09:39:08;22.00;99.90
51579;DHT22;47998;53.242;6.386;2023-06-26T09:41:37;21.30;99.90
51579;DHT22;47998;53.242;6.386;2023-06-26T09:44:06;21.10;1.00
51579;DHT22;47998;53.242;6.386;2023-06-26T09:46:33;21.50;1.00
51579;DHT22;47998;53.242;6.386;2023-06-26T09:51:34;21.70;1.00
51579;DHT22;47998;53.242;6.386;2023-06-26T09:54:01;22.20;99.90
51579;DHT22;47998;53.242;6.386;2023-06-26T09:56:28;22.00;99.90
51579;DHT22;47998;53.242;6.386;2023-06-26T09:58:57;21.70;99.90
51579;DHT22;47998;53.242;6.386;2023-06-26T10:01:24;21.50;1.00
51579;DHT22;47998;53.242;6.386;2023-06-26T10:03:50;21.90;3.40
51579;DHT22;47998;53.242;6.386;2023-06-26T10:06:19;22.20;98.30
51579;DHT22;47998;53.242;6.386;2023-06-26T10:08:47;22.30;22.90
51579;DHT22;47998;53.242;6.386;2023-06-26T10:11:16;22.50;45.00
51579;DHT22;47998;53.242;6.386;2023-06-26T10:13:45;23.10;99.90
51579;DHT22;47998;53.242;6.386;2023-06-26T10:16:13;22.30;1.00
51579;DHT22;47998;53.242;6.386;2023-06-26T10:18:40;22.40;99.90
51579;DHT22;47998;53.242;6.386;2023-06-26T10:21:08;22.50;1.00
51579;DHT22;47998;53.242;6.386;2023-06-26T10:23:36;22.40;1.00
51579;DHT22;47998;53.242;6.386;2023-06-26T10:26:05;22.20;1.00
51579;DHT22;47998;53.242;6.386;2023-06-26T10:28:34;22.40;1.00
51579;DHT22;47998;53.242;6.386;2023-06-26T10:31:01;22.00;1.00
51579;DHT22;47998;53.242;6.386;2023-06-26T10:33:28;22.20;35.80
51579;DHT22;47998;53.242;6.386;2023-06-26T10:36:27;22.50;99.90
51579;DHT22;47998;53.242;6.386;2023-06-26T10:38:58;22.20;1.00
51579;DHT22;47998;53.242;6.386;2023-06-26T10:41:27;21.50;99.90
51579;DHT22;47998;53.242;6.386;2023-06-26T10:46:25;22.90;1.00
51579;DHT22;47998;53.242;6.386;2023-06-26T10:49:00;22.30;1.00
51579;DHT22;47998;53.242;6.386;2023-06-26T10:51:27;21.60;99.90
51579;DHT22;47998;53.242;6.386;2023-06-26T10:53:57;21.70;99.90
51579;DHT22;47998;53.242;6.386;2023-06-26T10:56:54;21.80;58.60
51579;DHT22;47998;53.242;6.386;2023-06-26T10:59:28;22.00;1.00
51579;DHT22;47998;53.242;6.386;2023-06-26T11:01:59;21.70;1.00
51579;DHT22;47998;53.242;6.386;2023-06-26T11:04:45;21.90;1.00
51579;DHT22;47998;53.242;6.386;2023-06-26T11:07:24;21.40;99.90
51579;DHT22;47998;53.242;6.386;2023-06-26T11:12:44;21.70;65.40
51579;DHT22;47998;53.242;6.386;2023-06-26T11:15:10;22.10;1.00
51579;DHT22;47998;53.242;6.386;2023-06-26T11:17:37;22.40;1.00
51579;DHT22;47998;53.242;6.386;2023-06-26T11:20:07;22.00;99.90
51579;DHT22;47998;53.242;6.386;2023-06-26T11:22:38;21.70;99.90
51579;DHT22;47998;53.242;6.386;2023-06-26T11:25:05;20.90;1.00
51579;DHT22;47998;53.242;6.386;2023-06-26T11:27:43;21.20;99.90
51579;DHT22;47998;53.242;6.386;2023-06-26T11:30:11;21.80;99.90
51579;DHT22;47998;53.242;6.386;2023-06-26T11:32:38;22.40;99.90
51579;DHT22;47998;53.242;6.386;2023-06-26T11:35:04;22.00;99.90
51579;DHT22;47998;53.242;6.386;2023-06-26T11:37:34;21.30;1.00
51579;DHT22;47998;53.242;6.386;2023-06-26T11:40:00;21.90;99.90
51579;DHT22;47998;53.242;6.386;2023-06-26T11:42:25;22.30;99.90
51579;DHT22;47998;53.242;6.386;2023-06-26T11:44:51;22.60;99.90
51579;DHT22;47998;53.242;6.386;2023-06-26T11:47:19;22.30;99.90
51579;DHT22;47998;53.242;6.386;2023-06-26T11:49:46;22.50;99.90
51579;DHT22;47998;53.242;6.386;2023-06-26T11:52:13;22.20;99.90
51579;DHT22;47998;53.242;6.386;2023-06-26T11:54:40;22.30;99.90
51579;DHT22;47998;53.242;6.386;2023-06-26T11:57:06;22.50;99.90
51579;DHT22;47998;53.242;6.386;2023-06-26T11:59:34;22.70;99.90
51579;DHT22;47998;53.242;6.386;2023-06-26T12:02:05;22.00;99.90
51579;DHT22;47998;53.242;6.386;2023-06-26T12:04:31;21.60;99.90
51579;DHT22;47998;53.242;6.386;2023-06-26T12:06:57;21.60;1.00
51579;DHT22;47998;53.242;6.386;2023-06-26T12:09:23;21.20;99.90
51579;DHT22;47998;53.242;6.386;2023-06-26T12:11:53;21.10;1.00
51579;DHT22;47998;53.242;6.386;2023-06-26T12:14:20;21.00;1.00
51579;DHT22;47998;53.242;6.386;2023-06-26T12:16:47;21.10;1.00
51579;DHT22;47998;53.242;6.386;2023-06-26T12:19:13;21.30;1.00
51579;DHT22;47998;53.242;6.386;2023-06-26T12:24:20;22.10;99.90
51579;DHT22;47998;53.242;6.386;2023-06-26T12:26:50;22.40;99.90
51579;DHT22;47998;53.242;6.386;2023-06-26T12:29:18;22.10;34.80
51579;DHT22;47998;53.242;6.386;2023-06-26T12:31:48;21.40;99.90
51579;DHT22;47998;53.242;6.386;2023-06-26T12:34:17;21.60;1.00
51579;DHT22;47998;53.242;6.386;2023-06-26T12:36:50;21.80;99.90
51579;DHT22;47998;53.242;6.386;2023-06-26T12:39:17;22.50;1.00
51579;DHT22;47998;53.242;6.386;2023-06-26T12:41:53;21.70;1.00
51579;DHT22;47998;53.242;6.386;2023-06-26T12:44:30;21.40;92.60
51579;DHT22;47998;53.242;6.386;2023-06-26T12:47:02;21.60;49.40
51579;DHT22;47998;53.242;6.386;2023-06-26T12:49:35;21.50;99.90
51579;DHT22;47998;53.242;6.386;2023-06-26T12:52:04;21.30;99.90
51579;DHT22;47998;53.242;6.386;2023-06-26T12:54:30;21.30;99.90
51579;DHT22;47998;53.242;6.386;2023-06-26T12:56:56;21.30;99.90
51579;DHT22;47998;53.242;6.386;2023-06-26T12:59:22;21.60;99.90
51579;DHT22;47998;53.242;6.386;2023-06-26T13:01:48;21.80;99.90
51579;DHT22;47998;53.242;6.386;2023-06-26T13:04:14;22.40;99.90
51579;DHT22;47998;53.242;6.386;2023-06-26T13:06:39;22.90;99.90
51579;DHT22;47998;53.242;6.386;2023-06-26T13:09:05;22.70;89.30
51579;DHT22;47998;53.242;6.386;2023-06-26T13:11:33;22.20;99.90
51579;DHT22;47998;53.242;6.386;2023-06-26T13:13:59;21.80;99.90
51579;DHT22;47998;53.242;6.386;2023-06-26T13:16:25;21.30;99.90
51579;DHT22;47998;53.242;6.386;2023-06-26T13:18:51;21.60;99.90
51579;DHT22;47998;53.242;6.386;2023-06-26T13:21:17;22.00;1.00
51579;DHT22;47998;53.242;6.386;2023-06-26T13:23:43;22.40;99.90
51579;DHT22;47998;53.242;6.386;2023-06-26T13:26:10;22.50;99.90
51579;DHT22;47998;53.242;6.386;2023-06-26T13:28:36;22.40;99.90
51579;DHT22;47998;53.242;6.386;2023-06-26T13:31:02;22.20;99.90
51579;DHT22;47998;53.242;6.386;2023-06-26T13:33:29;22.30;99.90
51579;DHT22;47998;53.242;6.386;2023-06-26T13:35:54;22.40;99.90
51579;DHT22;47998;53.242;6.386;2023-06-26T13:38:21;21.70;99.90
51579;DHT22;47998;53.242;6.386;2023-06-26T13:40:54;21.00;1.00
51579;DHT22;47998;53.242;6.386;2023-06-26T13:43:21;20.50;99.90
51579;DHT22;47998;53.242;6.386;2023-06-26T13:45:48;20.00;1.00
51579;DHT22;47998;53.242;6.386;2023-06-26T13:48:13;19.90;99.90
51579;DHT22;47998;53.242;6.386;2023-06-26T13:50:39;19.80;99.90
51579;DHT22;47998;53.242;6.386;2023-06-26T13:53:05;19.80;94.90
51579;DHT22;47998;53.242;6.386;2023-06-26T13:55:33;19.90;99.90
51579;DHT22;47998;53.242;6.386;2023-06-26T13:57:59;20.00;99.90
51579;DHT22;47998;53.242;6.386;2023-06-26T14:00:25;20.20;99.90
51579;DHT22;47998;53.242;6.386;2023-06-26T14:02:51;20.40;99.90
51579;DHT22;47998;53.242;6.386;2023-06-26T14:05:17;20.90;99.90
51579;DHT22;47998;53.242;6.386;2023-06-26T14:07:44;21.70;92.50
51579;DHT22;47998;53.242;6.386;2023-06-26T14:10:10;21.90;99.90
51579;DHT22;47998;53.242;6.386;2023-06-26T14:12:36;22.00;65.30
51579;DHT22;47998;53.242;6.386;2023-06-26T14:15:02;22.00;95.70
51579;DHT22;47998;53.242;6.386;2023-06-26T14:17:29;22.20;99.90
51579;DHT22;47998;53.242;6.386;2023-06-26T14:19:55;22.50;99.90
51579;DHT22;47998;53.242;6.386;2023-06-26T14:22:21;21.90;99.90
51579;DHT22;47998;53.242;6.386;2023-06-26T14:24:47;22.00;99.90
51579;DHT22;47998;53.242;6.386;2023-06-26T14:27:13;22.10;99.90
51579;DHT22;47998;53.242;6.386;2023-06-26T14:29:39;21.90;1.00
51579;DHT22;47998;53.242;6.386;2023-06-26T14:32:06;21.90;55.70
51579;DHT22;47998;53.242;6.386;2023-06-26T14:34:31;21.00;99.90
51579;DHT22;47998;53.242;6.386;2023-06-26T14:36:57;20.20;1.00
51579;DHT22;47998;53.242;6.386;2023-06-26T14:39:23;19.90;1.00
51579;DHT22;47998;53.242;6.386;2023-06-26T14:41:49;19.60;59.20
51579;DHT22;47998;53.242;6.386;2023-06-26T14:44:15;19.30;99.90
51579;DHT22;47998;53.242;6.386;2023-06-26T14:46:41;19.30;99.90
51579;DHT22;47998;53.242;6.386;2023-06-26T14:49:07;19.50;99.90
51579;DHT22;47998;53.242;6.386;2023-06-26T14:51:33;19.40;99.90
51579;DHT22;47998;53.242;6.386;2023-06-26T14:54:00;19.40;99.90
51579;DHT22;47998;53.242;6.386;2023-06-26T14:56:25;19.30;28.00
51579;DHT22;47998;53.242;6.386;2023-06-26T14:58:51;19.30;99.90
51579;DHT22;47998;53.242;6.386;2023-06-26T15:01:18;19.40;99.90
51579;DHT22;47998;53.242;6.386;2023-06-26T15:03:47;19.30;99.90
51579;DHT22;47998;53.242;6.386;2023-06-26T15:06:13;19.20;17.70
51579;DHT22;47998;53.242;6.386;2023-06-26T15:08:39;19.20;59.30
51579;DHT22;47998;53.242;6.386;2023-06-26T15:11:04;19.30;99.90
51579;DHT22;47998;53.242;6.386;2023-06-26T15:13:30;19.50;6.00
51579;DHT22;47998;53.242;6.386;2023-06-26T15:15:56;19.40;1.00
51579;DHT22;47998;53.242;6.386;2023-06-26T15:18:22;19.40;1.00
51579;DHT22;47998;53.242;6.386;2023-06-26T15:20:48;19.40;99.90
51579;DHT22;47998;53.242;6.386;2023-06-26T15:23:13;19.40;99.90
51579;DHT22;47998;53.242;6.386;2023-06-26T15:25:39;19.60;99.90
51579;DHT22;47998;53.242;6.386;2023-06-26T15:28:08;19.90;99.90
51579;DHT22;47998;53.242;6.386;2023-06-26T15:30:34;20.20;99.90
51579;DHT22;47998;53.242;6.386;2023-06-26T15:32:59;20.10;1.00
51579;DHT22;47998;53.242;6.386;2023-06-26T15:35:25;20.10;1.00
51579;DHT22;47998;53.242;6.386;2023-06-26T15:37:52;19.90;99.90
51579;DHT22;47998;53.242;6.386;2023-06-26T15:40:17;19.80;1.00
51579;DHT22;47998;53.242;6.386;2023-06-26T15:42:48;19.70;1.00
51579;DHT22;47998;53.242;6.386;2023-06-26T15:45:15;19.70;99.90
51579;DHT22;47998;53.242;6.386;2023-06-26T15:47:43;20.00;99.90
51579;DHT22;47998;53.242;6.386;2023-06-26T15:50:09;19.60;99.90
51579;DHT22;47998;53.242;6.386;2023-06-26T15:52:35;19.40;1.00